createdAt,value
2022-08-26T00:06:33.070Z,100.00
2022-08-26T00:09:08.107Z,100.00
2022-08-26T00:12:17.830Z,100.00
2022-08-26T00:15:12.636Z,100.00
2022-08-26T00:18:22.549Z,100.00
2022-08-26T00:21:30.318Z,100.00
2022-08-26T00:24:03.289Z,100.00
2022-08-26T00:30:42.059Z,100.00
2022-08-26T00:33:14.781Z,100.00
2022-08-26T00:36:25.594Z,100.00
2022-08-26T00:46:00.035Z,100.00
2022-08-26T00:49:34.724Z,100.00
2022-08-26T00:52:27.453Z,100.00
2022-08-26T00:55:38.248Z,100.00
2022-08-26T00:59:05.621Z,100.00
2022-08-26T01:02:20.826Z,100.00
2022-08-26T01:05:14.568Z,100.00
2022-08-26T01:08:07.216Z,100.00
2022-08-26T01:11:35.605Z,100.00
2022-08-26T01:14:31.608Z,100.00
2022-08-26T01:17:22.469Z,100.00
2022-08-26T01:20:25.228Z,100.00
2022-08-26T01:23:16.399Z,100.00
2022-08-26T01:25:54.296Z,100.00
2022-08-26T01:31:57.016Z,100.00
2022-08-26T01:37:42.458Z,100.00
2022-08-26T01:40:37.833Z,100.00
2022-08-26T01:47:13.338Z,100.00
2022-08-26T01:49:49.401Z,100.00
2022-08-26T01:53:20.159Z,100.00
2022-08-26T01:56:14.358Z,100.00
2022-08-26T01:59:24.166Z,100.00
2022-08-26T02:01:57.308Z,100.00
2022-08-26T02:04:51.822Z,100.00
2022-08-26T02:07:26.860Z,100.00
2022-08-26T02:12:50.123Z,100.00
2022-08-26T02:15:24.349Z,100.00
2022-08-26T02:17:56.962Z,100.00
2022-08-26T02:20:48.003Z,100.00
2022-08-26T02:23:25.313Z,100.00
2022-08-26T02:26:02.519Z,100.00
2022-08-26T02:29:46.095Z,100.00
2022-08-26T02:32:54.848Z,100.00
2022-08-26T02:36:06.925Z,100.00
2022-08-26T02:41:51.747Z,100.00
2022-08-26T02:44:59.752Z,100.00
2022-08-26T02:51:17.205Z,100.00
2022-08-26T02:54:42.831Z,100.00
2022-08-26T02:57:52.069Z,100.00
2022-08-26T03:00:52.661Z,100.00
2022-08-26T03:04:04.459Z,100.00
2022-08-26T03:10:37.929Z,100.00
2022-08-26T03:13:47.303Z,100.00
2022-08-26T03:16:22.417Z,100.00
2022-08-26T03:18:56.527Z,100.00
2022-08-26T03:24:22.274Z,100.00
2022-08-26T03:26:55.525Z,100.00
2022-08-26T03:30:03.854Z,100.00
2022-08-26T03:33:11.889Z,100.00
2022-08-26T03:35:47.543Z,100.00
2022-08-26T03:38:58.520Z,100.00
2022-08-26T03:45:51.296Z,100.00
2022-08-26T03:55:00.344Z,100.00
2022-08-26T03:57:37.026Z,100.00
2022-08-26T04:00:27.302Z,100.00
2022-08-26T04:03:00.362Z,100.00
2022-08-26T04:05:51.074Z,100.00
2022-08-26T04:08:25.081Z,100.00
2022-08-26T04:11:22.918Z,100.00
2022-08-26T04:14:32.607Z,100.00
2022-08-26T04:17:40.586Z,100.00
2022-08-26T04:20:40.069Z,100.00
2022-08-26T04:32:37.607Z,100.00
2022-08-26T04:35:11.899Z,100.00
2022-08-26T04:38:20.232Z,100.00
2022-08-26T04:41:29.549Z,100.00
2022-08-26T04:44:25.785Z,100.00
2022-08-26T04:47:36.582Z,100.00
2022-08-26T04:50:44.282Z,100.00
2022-08-26T04:53:39.727Z,100.00
2022-08-26T04:56:31.733Z,100.00
2022-08-26T04:59:22.796Z,100.00
2022-08-26T05:01:59.709Z,100.00
2022-08-26T05:05:43.479Z,100.00
2022-08-26T05:08:18.121Z,100.00
2022-08-26T05:11:45.900Z,100.00
2022-08-26T05:14:42.873Z,100.00
2022-08-26T05:17:51.860Z,100.00
2022-08-26T05:21:02.388Z,100.00
2022-08-26T05:23:55.007Z,100.00
2022-08-26T05:26:45.577Z,100.00
2022-08-26T05:32:44.089Z,100.00
2022-08-26T05:35:17.707Z,100.00
2022-08-26T05:38:12.923Z,100.00
2022-08-26T05:41:38.396Z,100.00
2022-08-26T05:52:14.646Z,100.00
2022-08-26T05:55:07.708Z,100.00
2022-08-26T06:03:22.114Z,100.00
2022-08-26T06:09:22.768Z,100.00
2022-08-26T06:12:48.907Z,100.00
2022-08-26T06:15:43.726Z,91.21
2022-08-26T06:25:47.144Z,84.91
2022-08-26T06:31:46.473Z,85.27
2022-08-26T06:39:13.608Z,79.78
2022-08-26T06:42:06.386Z,70.34
2022-08-26T06:44:40.916Z,68.06
2022-08-26T06:51:05.482Z,73.32
2022-08-26T06:53:55.487Z,72.97
2022-08-26T06:57:21.534Z,69.60
2022-08-26T06:59:56.626Z,66.58
2022-08-26T07:06:12.447Z,64.51
2022-08-26T07:15:27.147Z,62.44
2022-08-26T07:18:38.486Z,60.18
2022-08-26T07:25:24.616Z,59.71
2022-08-26T07:29:10.082Z,61.43
2022-08-26T07:31:43.710Z,61.57
2022-08-26T07:34:34.576Z,59.66
2022-08-26T07:37:08.672Z,58.84
2022-08-26T07:43:08.751Z,57.61
2022-08-26T07:45:42.840Z,56.57
2022-08-26T07:48:34.145Z,56.36
2022-08-26T07:54:49.160Z,55.00
2022-08-26T08:01:08.882Z,51.75
2022-08-26T08:04:01.005Z,50.61
2022-08-26T08:10:38.601Z,48.93
2022-08-26T08:13:12.010Z,47.39
2022-08-26T08:16:12.721Z,47.62
2022-08-26T08:19:03.163Z,46.48
2022-08-26T08:25:08.144Z,46.18
2022-08-26T08:31:08.015Z,46.27
2022-08-26T08:33:41.191Z,45.21
2022-08-26T08:39:42.812Z,43.60
2022-08-26T08:42:36.820Z,42.77
2022-08-26T08:48:27.916Z,44.06
2022-08-26T08:51:11.251Z,43.97
2022-08-26T08:57:13.500Z,40.79
2022-08-26T09:03:56.921Z,41.42
2022-08-26T09:06:30.117Z,39.52
2022-08-26T09:12:50.121Z,40.16
2022-08-26T09:16:14.030Z,40.96
2022-08-26T09:19:19.357Z,41.35
2022-08-26T09:22:27.865Z,40.24
2022-08-26T09:25:18.702Z,40.26
2022-08-26T09:31:21.550Z,40.99
2022-08-26T09:34:17.887Z,40.30
2022-08-26T09:37:10.816Z,39.73
2022-08-26T09:40:45.420Z,38.73
2022-08-26T09:43:23.446Z,38.54
2022-08-26T09:49:32.707Z,38.36
2022-08-26T09:52:16.377Z,37.47
2022-08-26T09:55:16.219Z,35.50
2022-08-26T09:57:51.498Z,36.94
2022-08-26T10:01:01.653Z,37.65
2022-08-26T10:04:14.280Z,37.14
2022-08-26T10:13:52.491Z,36.44
2022-08-26T10:17:05.519Z,35.96
2022-08-26T10:23:34.133Z,34.61
2022-08-26T10:26:50.082Z,34.15
2022-08-26T10:30:17.796Z,34.17
2022-08-26T10:33:14.916Z,35.30
2022-08-26T10:36:15.305Z,34.86
2022-08-26T10:39:29.407Z,34.78
2022-08-26T10:42:39.698Z,34.05
2022-08-26T10:45:35.435Z,34.08
2022-08-26T10:48:35.239Z,33.26
2022-08-26T10:52:19.517Z,33.68
2022-08-26T10:58:44.751Z,33.38
2022-08-26T11:01:54.964Z,33.00
2022-08-26T11:04:55.338Z,31.19
2022-08-26T11:19:01.119Z,31.99
2022-08-26T11:22:05.448Z,32.64
2022-08-26T11:25:14.934Z,31.59
2022-08-26T11:28:07.169Z,31.60
2022-08-26T11:30:56.846Z,31.35
2022-08-26T11:34:14.289Z,32.08
2022-08-26T11:37:01.869Z,32.43
2022-08-26T11:40:05.714Z,32.52
2022-08-26T11:42:43.558Z,31.72
2022-08-26T11:45:55.135Z,31.30
2022-08-26T11:49:21.309Z,31.25
2022-08-26T11:52:13.364Z,31.34
2022-08-26T11:55:05.377Z,31.60
2022-08-26T11:57:45.601Z,31.23
2022-08-26T12:00:45.731Z,31.16
2022-08-26T12:07:04.708Z,31.17
2022-08-26T12:09:56.306Z,31.35
2022-08-26T12:13:03.447Z,31.27
2022-08-26T12:15:55.895Z,31.26
2022-08-26T12:18:50.843Z,31.43
2022-08-26T12:21:44.844Z,30.38
2022-08-26T12:25:13.020Z,29.60
2022-08-26T12:27:51.815Z,31.02
2022-08-26T12:30:59.957Z,31.64
2022-08-26T12:33:36.332Z,31.41
2022-08-26T12:36:29.255Z,30.50
2022-08-26T12:39:48.332Z,29.85
2022-08-26T12:42:44.848Z,29.98
2022-08-26T12:45:58.035Z,30.34
2022-08-26T12:49:09.136Z,30.77
2022-08-26T12:51:58.919Z,30.18
2022-08-26T12:55:09.802Z,30.34
2022-08-26T12:58:36.766Z,31.34
2022-08-26T13:01:28.155Z,31.60
2022-08-26T13:04:18.217Z,31.59
2022-08-26T13:06:51.003Z,31.10
2022-08-26T13:09:37.652Z,31.07
2022-08-26T13:12:11.778Z,31.16
2022-08-26T13:14:44.820Z,31.26
2022-08-26T13:17:36.197Z,30.97
2022-08-26T13:20:26.859Z,31.62
2022-08-26T13:23:00.593Z,30.95
2022-08-26T13:42:23.329Z,31.84
2022-08-26T13:44:58.257Z,31.57
2022-08-26T13:47:31.793Z,31.50
2022-08-26T13:50:22.044Z,31.94
2022-08-26T13:56:23.351Z,32.35
2022-08-26T13:59:15.126Z,32.99
2022-08-26T14:02:05.439Z,33.12
2022-08-26T14:08:19.451Z,33.20
2022-08-26T14:11:11.937Z,33.37
2022-08-26T14:13:44.931Z,33.41
2022-08-26T14:16:23.611Z,33.22
2022-08-26T14:26:08.534Z,34.11
2022-08-26T14:29:17.073Z,34.00
2022-08-26T14:36:17.231Z,35.08
2022-08-26T14:39:08.354Z,36.45
2022-08-26T14:41:44.965Z,36.49
2022-08-26T14:44:37.298Z,36.82
2022-08-26T14:47:29.349Z,37.08
2022-08-26T14:50:37.073Z,37.22
2022-08-26T14:53:52.740Z,38.61
2022-08-26T14:56:26.716Z,39.99
2022-08-26T14:59:35.874Z,41.71
2022-08-26T15:02:43.785Z,43.30
2022-08-26T15:05:17.201Z,44.54
2022-08-26T15:11:37.456Z,47.55
2022-08-26T15:14:45.418Z,49.28
2022-08-26T15:18:11.764Z,49.29
2022-08-26T15:21:36.454Z,49.51
2022-08-26T15:24:46.673Z,49.77
2022-08-26T15:27:56.383Z,50.27
2022-08-26T15:30:46.362Z,51.14
2022-08-26T15:33:40.717Z,51.45
2022-08-26T15:37:26.313Z,51.62
2022-08-26T15:43:29.148Z,51.32
2022-08-26T15:46:02.367Z,50.94
2022-08-26T15:48:38.557Z,50.67
2022-08-26T15:55:10.469Z,52.32
2022-08-26T16:01:09.523Z,52.39
2022-08-26T16:07:07.637Z,53.42
2022-08-26T16:10:00.181Z,53.76
2022-08-26T16:12:33.078Z,53.86
2022-08-26T16:15:29.200Z,54.48
2022-08-26T16:18:18.047Z,54.91
2022-08-26T16:21:29.432Z,55.70
2022-08-26T16:27:48.360Z,56.16
2022-08-26T16:33:47.144Z,54.50
2022-08-26T16:37:29.514Z,54.62
2022-08-26T16:44:31.281Z,53.68
2022-08-26T16:47:04.423Z,54.16
2022-08-26T16:49:38.126Z,54.52
2022-08-26T16:52:46.730Z,54.52
2022-08-26T16:55:45.505Z,55.11
2022-08-26T17:02:00.864Z,58.55
2022-08-26T17:04:33.540Z,60.33
2022-08-26T17:07:25.716Z,61.27
2022-08-26T17:09:59.221Z,63.11
2022-08-26T17:12:51.578Z,64.83
2022-08-26T17:16:00.000Z,65.97
2022-08-26T17:18:34.089Z,67.28
2022-08-26T17:24:34.493Z,68.71
2022-08-26T17:27:42.425Z,68.46
2022-08-26T17:34:00.720Z,69.51
2022-08-26T17:36:50.914Z,69.90
2022-08-26T17:43:11.670Z,69.66
2022-08-26T17:45:44.955Z,70.86
2022-08-26T17:52:17.959Z,71.95
2022-08-26T17:55:45.267Z,73.03
2022-08-26T18:01:58.948Z,74.79
2022-08-26T18:04:31.768Z,77.72
2022-08-26T18:07:43.860Z,79.53
2022-08-26T18:10:20.250Z,80.06
2022-08-26T18:15:54.824Z,83.08
2022-08-26T18:18:45.554Z,85.15
2022-08-26T18:21:37.732Z,85.51
2022-08-26T18:24:30.615Z,85.90
2022-08-26T18:27:04.025Z,88.05
2022-08-26T18:29:54.771Z,89.17
2022-08-26T18:33:03.425Z,91.40
2022-08-26T18:36:28.343Z,90.64
2022-08-26T18:39:19.271Z,90.18
2022-08-26T18:42:31.455Z,90.50
2022-08-26T18:45:41.396Z,89.40
2022-08-26T18:48:51.227Z,89.09
2022-08-26T18:51:45.694Z,89.56
2022-08-26T18:54:39.028Z,91.04
2022-08-26T18:58:05.646Z,91.89
2022-08-26T19:03:47.432Z,94.78
2022-08-26T19:07:13.015Z,97.26
2022-08-26T19:10:05.291Z,97.91
2022-08-26T19:13:00.793Z,99.17
2022-08-26T19:15:53.106Z,99.97
2022-08-26T19:19:17.758Z,100.00
2022-08-26T19:21:52.158Z,100.00
2022-08-26T19:24:59.670Z,100.00
2022-08-26T19:27:50.326Z,100.00
2022-08-26T19:31:07.017Z,100.00
2022-08-26T19:34:31.848Z,100.00
2022-08-26T19:44:37.259Z,100.00
2022-08-26T19:51:15.288Z,100.00
2022-08-26T19:54:23.295Z,100.00
2022-08-26T20:00:25.210Z,100.00
2022-08-26T20:02:57.997Z,100.00
2022-08-26T20:06:07.077Z,100.00
2022-08-26T20:08:58.791Z,100.00
2022-08-26T20:21:46.804Z,100.00
2022-08-26T20:25:13.589Z,100.00
2022-08-26T20:32:09.369Z,100.00
2022-08-26T20:37:50.803Z,100.00
2022-08-26T20:40:59.328Z,100.00
2022-08-26T20:43:49.453Z,100.00
2022-08-26T20:49:48.255Z,100.00
2022-08-26T20:52:43.964Z,100.00
2022-08-26T20:55:51.716Z,100.00
2022-08-26T20:58:24.988Z,100.00
2022-08-26T21:04:57.770Z,100.00
2022-08-26T21:07:30.537Z,100.00
2022-08-26T21:10:04.693Z,100.00
2022-08-26T21:12:59.002Z,100.00
2022-08-26T21:15:49.320Z,100.00
2022-08-26T21:18:41.894Z,100.00
2022-08-26T21:21:49.751Z,100.00
2022-08-26T21:24:57.045Z,100.00
2022-08-26T21:27:47.218Z,100.00
2022-08-26T21:30:21.143Z,100.00
2022-08-26T21:35:52.212Z,100.00
2022-08-26T21:38:28.418Z,100.00
2022-08-26T21:41:22.245Z,100.00
2022-08-26T21:43:57.565Z,100.00
2022-08-26T21:46:52.296Z,100.00
2022-08-26T21:49:44.210Z,100.00
2022-08-26T21:52:17.201Z,100.00
2022-08-26T21:54:52.068Z,100.00
2022-08-26T21:58:02.715Z,100.00
2022-08-26T22:01:31.580Z,100.00
2022-08-26T22:04:05.977Z,100.00
2022-08-26T22:09:55.755Z,100.00
2022-08-26T22:12:47.206Z,100.00
2022-08-26T22:15:41.378Z,100.00
2022-08-26T22:18:32.484Z,100.00
2022-08-26T22:24:50.708Z,100.00
2022-08-26T22:32:02.731Z,100.00
2022-08-26T22:37:43.843Z,100.00
2022-08-26T22:40:35.222Z,100.00
2022-08-26T22:43:43.238Z,100.00
2022-08-26T22:46:54.609Z,100.00
2022-08-26T22:52:58.448Z,100.00
2022-08-26T22:56:06.518Z,100.00
2022-08-26T22:58:40.151Z,100.00
2022-08-26T23:01:13.475Z,100.00
2022-08-26T23:06:54.498Z,100.00
2022-08-26T23:10:21.023Z,100.00
2022-08-26T23:16:18.959Z,100.00
2022-08-26T23:18:53.066Z,100.00
2022-08-26T23:21:43.541Z,100.00
2022-08-26T23:24:33.754Z,100.00
2022-08-26T23:27:23.434Z,100.00
2022-08-26T23:33:48.372Z,100.00
2022-08-26T23:36:22.527Z,100.00
2022-08-26T23:39:48.427Z,100.00
2022-08-26T23:45:47.385Z,100.00
2022-08-26T23:48:37.627Z,100.00
2022-08-26T23:51:46.758Z,100.00
2022-08-26T23:55:13.715Z,100.00
